createdAt,value
2018-12-13T00:00:34.804Z,4.66
2018-12-13T00:03:04.083Z,4.62
2018-12-13T00:05:33.351Z,4.76
2018-12-13T00:08:01.657Z,4.81
2018-12-13T00:10:29.009Z,4.75
2018-12-13T00:12:58.250Z,4.93
2018-12-13T00:15:30.072Z,4.82
2018-12-13T00:17:57.293Z,4.97
2018-12-13T00:20:25.222Z,4.95
2018-12-13T00:22:52.716Z,4.94
2018-12-13T00:25:20.169Z,5.00
2018-12-13T00:27:47.404Z,4.91
2018-12-13T00:30:14.761Z,4.79
2018-12-13T00:32:43.000Z,4.78
2018-12-13T00:35:10.216Z,4.87
2018-12-13T00:37:38.469Z,4.73
2018-12-13T00:40:05.948Z,4.74
2018-12-13T00:42:33.653Z,4.72
2018-12-13T00:45:00.877Z,4.59
2018-12-13T00:47:28.105Z,4.66
2018-12-13T00:49:55.328Z,4.59
2018-12-13T00:52:22.603Z,4.56
2018-12-13T00:54:50.844Z,4.43
2018-12-13T00:57:18.056Z,4.52
2018-12-13T00:59:45.286Z,4.36
2018-12-13T01:02:12.496Z,4.40
2018-12-13T01:04:39.723Z,4.23
2018-12-13T01:07:08.160Z,4.13
2018-12-13T01:09:35.634Z,4.12
2018-12-13T01:12:02.840Z,4.23
2018-12-13T01:14:30.096Z,4.32
2018-12-13T01:16:57.301Z,4.36
2018-12-13T01:19:24.521Z,4.14
2018-12-13T01:21:51.788Z,4.15
2018-12-13T01:27:11.989Z,4.12
2018-12-13T01:29:39.421Z,4.15
2018-12-13T01:32:08.711Z,3.92
2018-12-13T01:34:35.936Z,3.93
2018-12-13T01:37:03.223Z,4.09
2018-12-13T01:39:30.622Z,4.01
2018-12-13T01:41:57.828Z,4.05
2018-12-13T01:47:19.164Z,4.14
2018-12-13T01:49:47.200Z,4.13
2018-12-13T01:52:16.044Z,4.10
2018-12-13T01:54:44.483Z,3.85
2018-12-13T01:57:11.809Z,3.81
2018-12-13T01:59:39.034Z,3.77
2018-12-13T02:02:06.254Z,3.75
2018-12-13T02:04:33.784Z,3.68
2018-12-13T02:07:01.170Z,3.64
2018-12-13T02:09:29.404Z,3.71
2018-12-13T02:11:56.624Z,3.80
2018-12-13T02:14:23.840Z,3.66
2018-12-13T02:16:51.048Z,3.60
2018-12-13T02:19:18.370Z,3.66
2018-12-13T02:21:46.593Z,3.66
2018-12-13T02:24:13.828Z,3.75
2018-12-13T02:26:41.172Z,3.90
2018-12-13T02:29:08.456Z,4.00
2018-12-13T02:31:35.709Z,3.99
2018-12-13T02:34:02.972Z,4.10
2018-12-13T02:36:30.186Z,4.13
2018-12-13T02:38:57.410Z,4.23
2018-12-13T02:41:24.852Z,4.20
2018-12-13T02:43:52.076Z,4.11
2018-12-13T02:46:19.347Z,4.24
2018-12-13T02:48:46.647Z,4.39
2018-12-13T02:51:13.865Z,4.43
2018-12-13T02:53:41.152Z,4.26
2018-12-13T02:56:08.379Z,4.40
2018-12-13T02:58:36.882Z,4.52
2018-12-13T03:01:05.253Z,4.43
2018-12-13T03:03:32.468Z,4.39
2018-12-13T03:05:59.692Z,4.59
2018-12-13T03:08:26.913Z,4.46
2018-12-13T03:10:56.289Z,4.69
2018-12-13T03:13:23.485Z,4.50
2018-12-13T03:15:50.708Z,4.28
2018-12-13T03:18:31.164Z,4.30
2018-12-13T03:20:58.407Z,4.46
2018-12-13T03:23:25.642Z,4.27
2018-12-13T03:25:52.934Z,4.51
2018-12-13T03:28:20.157Z,4.49
2018-12-13T03:30:47.405Z,4.35
2018-12-13T03:33:15.747Z,4.37
2018-12-13T03:35:43.203Z,4.21
2018-12-13T03:38:10.440Z,4.43
2018-12-13T03:40:38.004Z,4.35
2018-12-13T03:43:05.236Z,4.21
2018-12-13T03:45:32.496Z,4.40
2018-12-13T03:47:59.722Z,4.19
2018-12-13T03:50:26.989Z,4.23
2018-12-13T03:52:54.229Z,4.28
2018-12-13T03:55:21.474Z,4.03
2018-12-13T03:57:48.812Z,4.11
2018-12-13T04:00:16.058Z,4.24
2018-12-13T04:02:43.403Z,4.17
2018-12-13T04:05:10.648Z,4.10
2018-12-13T04:07:37.876Z,4.03
2018-12-13T04:10:05.276Z,4.13
2018-12-13T04:12:32.520Z,3.96
2018-12-13T04:14:59.745Z,4.05
2018-12-13T04:17:26.985Z,3.83
2018-12-13T04:19:56.248Z,4.04
2018-12-13T04:22:23.473Z,4.00
2018-12-13T04:24:51.068Z,3.98
2018-12-13T04:27:18.305Z,3.84
2018-12-13T04:29:45.559Z,4.05
2018-12-13T04:32:12.817Z,3.85
2018-12-13T04:34:40.067Z,3.81
2018-12-13T04:37:07.313Z,3.77
2018-12-13T04:39:35.644Z,3.74
2018-12-13T04:42:02.892Z,3.65
2018-12-13T04:44:30.124Z,3.56
2018-12-13T04:46:57.359Z,3.74
2018-12-13T04:49:24.591Z,3.79
2018-12-13T04:51:51.955Z,3.81
2018-12-13T04:54:19.190Z,3.68
2018-12-13T04:56:46.431Z,3.63
2018-12-13T04:59:13.652Z,3.64
2018-12-13T05:01:41.160Z,3.72
2018-12-13T05:04:08.384Z,3.64
2018-12-13T05:06:35.613Z,3.72
2018-12-13T05:09:06.060Z,3.53
2018-12-13T05:11:35.124Z,3.52
2018-12-13T05:14:02.347Z,3.46
2018-12-13T05:16:29.594Z,3.55
2018-12-13T05:18:56.820Z,3.58
2018-12-13T05:21:24.193Z,3.59
2018-12-13T05:23:51.420Z,3.60
2018-12-13T05:26:18.676Z,3.66
2018-12-13T05:28:45.901Z,3.47
2018-12-13T05:31:13.153Z,3.38
2018-12-13T05:33:40.412Z,3.17
2018-12-13T05:36:07.649Z,3.11
2018-12-13T05:38:35.973Z,3.14
2018-12-13T05:41:03.319Z,3.00
2018-12-13T05:43:30.536Z,3.01
2018-12-13T05:45:57.895Z,3.08
2018-12-13T05:48:27.295Z,2.61
2018-12-13T05:50:54.580Z,2.74
2018-12-13T05:53:21.802Z,2.71
2018-12-13T05:55:49.040Z,2.56
2018-12-13T05:58:16.257Z,2.63
2018-12-13T06:00:43.500Z,2.88
2018-12-13T06:03:10.724Z,2.85
2018-12-13T06:05:37.988Z,2.77
2018-12-13T06:08:05.214Z,2.82
2018-12-13T06:10:32.440Z,2.60
2018-12-13T06:12:59.688Z,2.66
2018-12-13T06:15:26.908Z,2.79
2018-12-13T06:17:54.266Z,2.60
2018-12-13T06:20:21.488Z,2.72
2018-12-13T06:22:48.720Z,2.89
2018-12-13T06:25:15.962Z,2.63
2018-12-13T06:27:43.196Z,2.63
2018-12-13T06:30:10.550Z,2.80
2018-12-13T06:32:37.805Z,2.54
2018-12-13T06:35:05.469Z,2.54
2018-12-13T06:37:32.758Z,2.39
2018-12-13T06:39:59.984Z,2.49
2018-12-13T06:42:27.208Z,2.39
2018-12-13T06:44:54.428Z,2.40
2018-12-13T06:47:21.674Z,2.23
2018-12-13T06:49:48.914Z,2.21
2018-12-13T06:52:16.167Z,2.38
2018-12-13T06:54:43.388Z,2.29
2018-12-13T06:57:10.656Z,2.41
2018-12-13T06:59:37.890Z,2.39
2018-12-13T07:02:05.120Z,2.37
2018-12-13T07:04:32.328Z,2.17
2018-12-13T07:06:59.556Z,2.22
2018-12-13T07:09:26.844Z,2.13
2018-12-13T07:11:54.099Z,2.28
2018-12-13T07:17:14.212Z,2.31
2018-12-13T07:19:41.480Z,2.42
2018-12-13T07:22:08.731Z,2.43
2018-12-13T07:24:35.948Z,2.35
2018-12-13T07:27:03.441Z,2.52
2018-12-13T07:29:30.800Z,2.50
2018-12-13T07:31:58.021Z,2.54
2018-12-13T07:34:25.580Z,2.48
2018-12-13T07:36:52.852Z,2.63
2018-12-13T07:39:20.075Z,2.57
2018-12-13T07:41:47.357Z,2.64
2018-12-13T07:44:14.708Z,2.51
2018-12-13T07:46:42.971Z,2.47
2018-12-13T07:49:10.208Z,2.58
2018-12-13T07:51:37.444Z,2.69
2018-12-13T07:54:04.660Z,2.55
2018-12-13T07:56:32.021Z,2.50
2018-12-13T07:58:59.249Z,2.66
2018-12-13T08:01:26.460Z,2.68
2018-12-13T08:03:54.020Z,2.59
2018-12-13T08:06:21.376Z,2.78
2018-12-13T08:08:48.620Z,2.83
2018-12-13T08:11:15.844Z,2.95
2018-12-13T08:13:43.240Z,3.04
2018-12-13T08:16:10.473Z,3.18
2018-12-13T08:18:39.731Z,3.20
2018-12-13T08:21:09.000Z,3.34
2018-12-13T08:23:36.244Z,3.49
2018-12-13T08:26:03.616Z,3.47
2018-12-13T08:28:31.880Z,3.63
2018-12-13T08:30:59.892Z,3.83
2018-12-13T08:33:27.117Z,3.64
2018-12-13T08:35:54.336Z,3.75
2018-12-13T08:38:27.049Z,3.52
2018-12-13T08:43:34.680Z,3.47
2018-12-13T08:46:02.155Z,3.54
2018-12-13T08:48:29.380Z,3.61
2018-12-13T08:50:56.684Z,3.25
2018-12-13T08:53:23.912Z,3.43
2018-12-13T08:55:51.141Z,3.42
2018-12-13T08:58:18.520Z,3.42
2018-12-13T09:00:45.743Z,3.52
2018-12-13T09:03:12.964Z,3.84
2018-12-13T09:05:41.797Z,3.71
2018-12-13T09:08:09.172Z,3.95
2018-12-13T09:10:36.423Z,4.12
2018-12-13T09:13:03.861Z,3.98
2018-12-13T09:15:31.097Z,4.08
2018-12-13T09:17:58.550Z,3.99
2018-12-13T09:20:25.856Z,4.09
2018-12-13T09:22:53.102Z,3.98
2018-12-13T09:25:20.425Z,4.07
2018-12-13T09:27:47.801Z,4.44
2018-12-13T09:30:15.027Z,4.32
2018-12-13T09:32:42.488Z,4.40
2018-12-13T09:35:09.716Z,4.31
2018-12-13T09:37:37.148Z,4.16
2018-12-13T09:40:05.016Z,4.47
2018-12-13T09:42:32.272Z,4.49
2018-12-13T09:44:59.524Z,4.19
2018-12-13T09:47:26.736Z,4.23
2018-12-13T09:49:54.016Z,4.52
2018-12-13T09:52:21.247Z,4.39
2018-12-13T09:54:49.484Z,4.48
2018-12-13T09:57:16.953Z,4.37
2018-12-13T09:59:44.189Z,4.39
2018-12-13T10:02:11.417Z,4.27
2018-12-13T10:04:38.773Z,4.33
2018-12-13T10:07:05.999Z,4.66
2018-12-13T10:09:33.227Z,4.46
2018-12-13T10:12:00.697Z,4.74
2018-12-13T10:14:27.937Z,4.54
2018-12-13T10:16:55.159Z,4.46
2018-12-13T10:19:22.732Z,4.42
2018-12-13T10:21:49.976Z,4.67
2018-12-13T10:24:17.309Z,4.72
2018-12-13T10:26:44.548Z,4.89
2018-12-13T10:29:12.109Z,5.25
2018-12-13T10:31:39.324Z,4.75
2018-12-13T10:34:06.736Z,4.99
2018-12-13T10:36:33.950Z,5.00
2018-12-13T10:39:01.189Z,4.83
2018-12-13T10:41:30.432Z,4.86
2018-12-13T10:43:57.660Z,5.22
2018-12-13T10:46:24.996Z,5.16
2018-12-13T10:48:52.380Z,5.51
2018-12-13T10:51:19.600Z,5.26
2018-12-13T10:53:46.832Z,5.29
2018-12-13T10:56:14.392Z,5.04
2018-12-13T10:58:41.604Z,5.07
2018-12-13T11:01:14.544Z,4.93
2018-12-13T11:03:41.792Z,5.14
2018-12-13T11:06:09.052Z,4.93
2018-12-13T11:08:36.284Z,5.13
2018-12-13T11:11:03.663Z,5.08
2018-12-13T11:13:31.000Z,5.26
2018-12-13T11:15:58.245Z,5.19
2018-12-13T11:18:25.466Z,5.09
2018-12-13T11:20:52.816Z,4.97
2018-12-13T11:23:20.164Z,5.08
2018-12-13T11:25:47.436Z,5.10
2018-12-13T11:28:26.195Z,5.35
2018-12-13T11:30:54.660Z,5.06
2018-12-13T11:33:21.991Z,5.10
2018-12-13T11:35:49.236Z,5.05
2018-12-13T11:38:16.584Z,5.36
2018-12-13T11:40:43.836Z,5.26
2018-12-13T11:43:11.066Z,5.28
2018-12-13T11:45:38.324Z,5.33
2018-12-13T11:48:05.561Z,5.28
2018-12-13T11:50:32.800Z,5.20
2018-12-13T11:53:00.028Z,5.23
2018-12-13T11:55:33.706Z,5.20
2018-12-13T11:58:01.317Z,5.39
2018-12-13T12:00:28.680Z,5.48
2018-12-13T12:02:55.905Z,5.42
2018-12-13T12:05:23.280Z,5.41
2018-12-13T12:07:51.622Z,5.50
2018-12-13T12:10:18.873Z,5.56
2018-12-13T12:12:46.240Z,5.82
2018-12-13T12:15:13.484Z,5.80
2018-12-13T12:17:40.840Z,5.65
2018-12-13T12:20:08.200Z,5.63
2018-12-13T12:22:35.441Z,5.69
2018-12-13T12:25:03.076Z,5.45
2018-12-13T12:27:30.308Z,5.48
2018-12-13T12:29:57.589Z,5.36
2018-12-13T12:32:24.833Z,5.23
2018-12-13T12:34:52.096Z,5.40
2018-12-13T12:37:19.341Z,5.11
2018-12-13T12:39:46.575Z,5.04
2018-12-13T12:42:13.919Z,5.14
2018-12-13T12:44:41.745Z,5.13
2018-12-13T12:47:09.476Z,5.00
2018-12-13T12:49:36.852Z,4.88
2018-12-13T12:52:04.592Z,5.08
2018-12-13T12:54:31.808Z,5.06
2018-12-13T12:56:59.040Z,5.07
2018-12-13T12:59:26.264Z,5.18
2018-12-13T13:01:53.512Z,5.15
2018-12-13T13:04:20.754Z,5.16
2018-12-13T13:06:48.201Z,5.09
2018-12-13T13:09:15.423Z,5.08
2018-12-13T13:11:42.682Z,5.07
2018-12-13T13:14:10.601Z,5.01
2018-12-13T13:16:37.888Z,4.68
2018-12-13T13:19:05.126Z,4.74
2018-12-13T13:21:32.384Z,4.69
2018-12-13T13:24:00.208Z,4.57
2018-12-13T13:26:27.684Z,4.85
2018-12-13T13:28:54.936Z,4.98
2018-12-13T13:31:22.181Z,4.89
2018-12-13T13:33:49.496Z,4.90
2018-12-13T13:36:16.769Z,4.90
2018-12-13T13:38:44.052Z,5.01
2018-12-13T13:41:11.336Z,4.90
2018-12-13T13:43:38.704Z,4.78
2018-12-13T13:46:06.088Z,4.50
2018-12-13T13:48:33.720Z,4.76
2018-12-13T13:51:01.087Z,4.76
2018-12-13T13:53:28.444Z,4.60
2018-12-13T13:55:55.695Z,4.65
2018-12-13T13:58:22.919Z,4.38
2018-12-13T14:00:50.480Z,4.23
2018-12-13T14:03:17.712Z,4.16
2018-12-13T14:05:44.964Z,4.17
2018-12-13T14:08:12.215Z,4.32
2018-12-13T14:10:39.452Z,4.24
2018-12-13T14:13:06.685Z,4.42
2018-12-13T14:15:33.972Z,4.55
2018-12-13T14:18:01.209Z,4.36
2018-12-13T14:20:28.485Z,4.38
2018-12-13T14:22:56.172Z,4.35
2018-12-13T14:25:23.528Z,4.30
2018-12-13T14:27:51.018Z,4.49
2018-12-13T14:30:18.264Z,4.33
2018-12-13T14:32:45.509Z,4.35
2018-12-13T14:35:12.760Z,4.31
2018-12-13T14:37:39.996Z,4.36
2018-12-13T14:40:07.384Z,4.29
2018-12-13T14:42:36.784Z,4.52
2018-12-13T14:45:04.900Z,4.64
2018-12-13T14:47:32.249Z,4.39
2018-12-13T14:49:59.512Z,4.37
2018-12-13T14:52:26.729Z,4.45
2018-12-13T14:54:53.968Z,4.45
2018-12-13T14:57:21.241Z,4.37
2018-12-13T14:59:48.498Z,4.47
2018-12-13T15:02:15.723Z,4.47
2018-12-13T15:04:45.128Z,4.46
2018-12-13T15:07:12.476Z,4.42
2018-12-13T15:09:39.728Z,4.45
2018-12-13T15:12:07.126Z,4.56
2018-12-13T15:14:34.376Z,4.58
2018-12-13T15:17:01.597Z,4.59
2018-12-13T15:19:28.856Z,4.60
2018-12-13T15:21:56.072Z,4.50
2018-12-13T15:24:23.308Z,4.52
2018-12-13T15:26:50.561Z,4.61
2018-12-13T15:29:17.808Z,4.44
2018-12-13T15:31:45.176Z,4.57
2018-12-13T15:34:12.392Z,4.58
2018-12-13T15:36:39.632Z,4.60
2018-12-13T15:39:06.896Z,4.43
2018-12-13T15:41:35.683Z,4.49
2018-12-13T15:44:02.948Z,4.45
2018-12-13T15:46:30.208Z,4.43
2018-12-13T15:48:57.436Z,4.41
2018-12-13T15:51:24.660Z,4.37
2018-12-13T15:53:51.884Z,4.32
2018-12-13T15:56:19.107Z,4.33
2018-12-13T15:58:46.352Z,4.36
2018-12-13T16:01:13.601Z,4.53
2018-12-13T16:03:40.936Z,4.44
2018-12-13T16:06:08.164Z,4.44
2018-12-13T16:08:35.416Z,4.46
2018-12-13T16:11:03.792Z,4.59
2018-12-13T16:13:32.000Z,4.58
2018-12-13T16:15:59.232Z,4.53
2018-12-13T16:18:26.491Z,4.55
2018-12-13T16:20:53.748Z,4.32
2018-12-13T16:23:20.984Z,4.36
2018-12-13T16:25:48.229Z,4.29
2018-12-13T16:28:15.604Z,4.31
2018-12-13T16:30:43.044Z,4.30
2018-12-13T16:33:10.308Z,4.31
2018-12-13T16:35:38.548Z,4.41
2018-12-13T16:38:06.131Z,4.34
2018-12-13T16:40:33.720Z,4.31
2018-12-13T16:43:00.957Z,4.28
2018-12-13T16:45:28.244Z,4.29
2018-12-13T16:47:55.494Z,4.31
2018-12-13T16:50:22.733Z,4.41
2018-12-13T16:52:50.134Z,4.35
2018-12-13T16:55:17.376Z,4.20
2018-12-13T16:57:44.840Z,4.56
2018-12-13T17:00:12.508Z,4.76
2018-12-13T17:02:40.577Z,4.79
2018-12-13T17:05:07.791Z,4.77
2018-12-13T17:07:35.028Z,4.46
2018-12-13T17:10:02.404Z,4.56
2018-12-13T17:12:29.664Z,4.31
2018-12-13T17:14:56.911Z,4.34
2018-12-13T17:17:24.188Z,4.10
2018-12-13T17:19:51.428Z,3.96
2018-12-13T17:22:18.661Z,4.11
2018-12-13T17:24:45.880Z,4.08
2018-12-13T17:27:14.151Z,4.03
2018-12-13T17:29:41.374Z,4.01
2018-12-13T17:32:08.608Z,4.03
2018-12-13T17:34:35.830Z,3.81
2018-12-13T17:37:03.064Z,3.99
2018-12-13T17:39:31.296Z,3.83
2018-12-13T17:41:58.784Z,3.96
2018-12-13T17:44:25.997Z,3.86
2018-12-13T17:46:53.228Z,3.76
2018-12-13T17:49:20.496Z,3.78
2018-12-13T17:51:47.721Z,3.71
2018-12-13T17:54:14.968Z,3.67
2018-12-13T17:56:42.225Z,3.71
2018-12-13T17:59:09.468Z,3.49
2018-12-13T18:01:36.712Z,3.69
2018-12-13T18:04:03.984Z,3.68
2018-12-13T18:06:31.272Z,3.75
2018-12-13T18:08:58.518Z,3.77
2018-12-13T18:11:25.776Z,3.83
2018-12-13T18:13:54.137Z,3.79
2018-12-13T18:16:21.380Z,3.76
2018-12-13T18:18:48.613Z,3.85
2018-12-13T18:21:16.368Z,3.86
2018-12-13T18:23:43.614Z,3.86
2018-12-13T18:26:10.875Z,3.77
2018-12-13T18:28:38.132Z,4.07
2018-12-13T18:31:05.368Z,4.05
2018-12-13T18:33:33.784Z,4.15
2018-12-13T18:36:01.134Z,4.01
2018-12-13T18:38:28.361Z,3.99
2018-12-13T18:40:55.604Z,4.04
2018-12-13T18:43:22.965Z,3.96
2018-12-13T18:45:50.212Z,4.17
2018-12-13T18:48:17.439Z,4.08
2018-12-13T18:50:44.685Z,4.13
2018-12-13T18:53:11.982Z,4.24
2018-12-13T18:55:39.237Z,4.05
2018-12-13T18:58:06.461Z,4.04
2018-12-13T19:00:33.700Z,3.98
2018-12-13T19:03:00.936Z,4.01
2018-12-13T19:05:28.212Z,4.13
2018-12-13T19:07:55.656Z,3.97
2018-12-13T19:10:22.905Z,3.88
2018-12-13T19:12:50.250Z,3.83
2018-12-13T19:15:17.515Z,3.96
2018-12-13T19:17:44.856Z,4.09
2018-12-13T19:20:13.212Z,4.12
2018-12-13T19:22:40.586Z,3.91
2018-12-13T19:25:09.469Z,4.07
2018-12-13T19:27:37.201Z,3.98
2018-12-13T19:30:05.723Z,3.89
2018-12-13T19:32:32.968Z,3.95
2018-12-13T19:35:00.384Z,3.88
2018-12-13T19:37:27.894Z,3.77
2018-12-13T19:39:55.264Z,3.71
2018-12-13T19:42:23.701Z,3.60
2018-12-13T19:44:50.968Z,3.71
2018-12-13T19:47:18.208Z,3.60
2018-12-13T19:49:45.580Z,3.41
2018-12-13T19:52:13.980Z,3.41
2018-12-13T19:54:41.252Z,3.36
2018-12-13T19:57:08.588Z,3.41
2018-12-13T19:59:35.829Z,3.60
2018-12-13T20:02:03.357Z,3.39
2018-12-13T20:04:31.755Z,3.44
2018-12-13T20:06:59.052Z,3.47
2018-12-13T20:09:26.276Z,3.34
2018-12-13T20:11:53.530Z,3.46
2018-12-13T20:14:21.062Z,3.52
2018-12-13T20:16:48.712Z,3.60
2018-12-13T20:19:16.051Z,3.77
2018-12-13T20:21:43.398Z,3.71
2018-12-13T20:24:10.769Z,3.55
2018-12-13T20:26:38.041Z,3.59
2018-12-13T20:29:05.280Z,3.56
2018-12-13T20:31:32.527Z,3.50
2018-12-13T20:33:59.771Z,3.43
2018-12-13T20:36:27.072Z,3.54
2018-12-13T20:38:54.341Z,3.58
2018-12-13T20:41:21.587Z,3.47
2018-12-13T20:43:48.813Z,3.67
2018-12-13T20:46:16.052Z,3.56
2018-12-13T20:48:43.284Z,3.60
2018-12-13T20:51:10.532Z,3.62
2018-12-13T20:53:37.744Z,3.61
2018-12-13T20:56:04.977Z,3.47
2018-12-13T20:58:32.201Z,3.45
2018-12-13T21:00:59.448Z,3.52
2018-12-13T21:03:26.672Z,3.39
2018-12-13T21:05:54.001Z,3.37
2018-12-13T21:08:21.212Z,3.38
2018-12-13T21:10:48.443Z,3.36
2018-12-13T21:13:15.691Z,3.38
2018-12-13T21:15:42.932Z,3.52
2018-12-13T21:18:10.168Z,3.50
2018-12-13T21:20:37.423Z,3.48
2018-12-13T21:23:04.649Z,3.38
2018-12-13T21:25:31.987Z,3.54
2018-12-13T21:27:59.444Z,3.49
2018-12-13T21:30:26.688Z,3.55
2018-12-13T21:32:54.031Z,3.41
2018-12-13T21:35:21.290Z,3.59
2018-12-13T21:37:48.540Z,3.36
2018-12-13T21:40:15.781Z,3.42
2018-12-13T21:42:43.029Z,3.39
2018-12-13T21:45:10.508Z,3.11
2018-12-13T21:47:37.781Z,3.16
2018-12-13T21:50:06.150Z,3.29
2018-12-13T21:52:33.395Z,3.09
2018-12-13T21:55:00.611Z,3.16
2018-12-13T21:57:27.856Z,3.12
2018-12-13T21:59:55.210Z,3.12
2018-12-13T22:02:23.041Z,3.20
2018-12-13T22:07:43.275Z,3.26
2018-12-13T22:10:10.588Z,3.22
2018-12-13T22:12:39.370Z,3.22
2018-12-13T22:15:10.168Z,3.07
2018-12-13T22:17:37.451Z,3.20
2018-12-13T22:20:05.320Z,3.21
2018-12-13T22:22:32.608Z,3.21
2018-12-13T22:24:59.956Z,3.23
2018-12-13T22:27:27.189Z,3.01
2018-12-13T22:29:54.452Z,3.06
2018-12-13T22:32:21.704Z,3.19
2018-12-13T22:34:49.105Z,3.16
2018-12-13T22:37:16.492Z,3.21
2018-12-13T22:39:43.869Z,3.13
2018-12-13T22:42:11.116Z,3.38
2018-12-13T22:44:38.398Z,3.33
2018-12-13T22:47:05.776Z,3.16
2018-12-13T22:49:33.119Z,3.38
2018-12-13T22:52:00.555Z,3.42
2018-12-13T22:54:27.792Z,3.29
2018-12-13T22:56:55.024Z,3.26
2018-12-13T22:59:22.340Z,3.15
2018-12-13T23:01:49.584Z,3.40
2018-12-13T23:04:17.701Z,3.28
2018-12-13T23:06:44.960Z,3.15
2018-12-13T23:09:12.309Z,3.28
2018-12-13T23:11:39.681Z,3.08
2018-12-13T23:14:07.352Z,3.00
2018-12-13T23:16:34.585Z,3.13
2018-12-13T23:19:01.816Z,3.11
2018-12-13T23:21:29.883Z,3.07
2018-12-13T23:23:57.559Z,3.15
2018-12-13T23:26:25.268Z,3.07
2018-12-13T23:28:52.525Z,3.15
2018-12-13T23:31:36.694Z,3.11
2018-12-13T23:34:04.312Z,3.09
2018-12-13T23:36:31.683Z,3.05
2018-12-13T23:38:59.110Z,3.14
2018-12-13T23:41:26.482Z,3.06
2018-12-13T23:43:55.076Z,3.01
2018-12-13T23:46:22.320Z,2.94
2018-12-13T23:48:49.668Z,3.03
2018-12-13T23:51:16.888Z,3.08
2018-12-13T23:53:44.116Z,2.83
2018-12-13T23:56:11.439Z,2.88
2018-12-13T23:58:39.092Z,2.96
